sensor_id;sensor_type;location;lat;lon;timestamp;P1;durP1;ratioP1;P2;durP2;ratioP2
45836;SDS011;31548;51.420;-0.040;2022-09-09T00:04:28;4.53;;;0.50;;
45836;SDS011;31548;51.420;-0.040;2022-09-09T00:12:41;5.32;;;0.65;;
45836;SDS011;31548;51.420;-0.040;2022-09-09T00:15:13;4.13;;;0.50;;
45836;SDS011;31548;51.420;-0.040;2022-09-09T00:20:28;6.88;;;0.50;;
45836;SDS011;31548;51.420;-0.040;2022-09-09T00:26:38;7.45;;;0.88;;
45836;SDS011;31548;51.420;-0.040;2022-09-09T00:28:50;7.78;;;0.50;;
45836;SDS011;31548;51.420;-0.040;2022-09-09T00:31:27;2.58;;;0.50;;
45836;SDS011;31548;51.420;-0.040;2022-09-09T00:33:58;4.40;;;0.50;;
45836;SDS011;31548;51.420;-0.040;2022-09-09T00:36:36;5.03;;;0.50;;
45836;SDS011;31548;51.420;-0.040;2022-09-09T00:39:05;7.38;;;0.55;;
45836;SDS011;31548;51.420;-0.040;2022-09-09T00:45:05;2.63;;;0.90;;
45836;SDS011;31548;51.420;-0.040;2022-09-09T00:47:57;4.93;;;0.50;;
45836;SDS011;31548;51.420;-0.040;2022-09-09T00:58:42;6.63;;;0.80;;
45836;SDS011;31548;51.420;-0.040;2022-09-09T01:01:13;3.38;;;0.50;;
45836;SDS011;31548;51.420;-0.040;2022-09-09T01:03:46;5.63;;;0.80;;
45836;SDS011;31548;51.420;-0.040;2022-09-09T01:06:27;8.02;;;0.70;;
45836;SDS011;31548;51.420;-0.040;2022-09-09T01:11:59;3.55;;;0.50;;
45836;SDS011;31548;51.420;-0.040;2022-09-09T01:22:50;5.45;;;0.80;;
45836;SDS011;31548;51.420;-0.040;2022-09-09T01:28:37;3.00;;;0.60;;
45836;SDS011;31548;51.420;-0.040;2022-09-09T01:31:11;6.85;;;0.80;;
45836;SDS011;31548;51.420;-0.040;2022-09-09T01:33:45;4.38;;;0.60;;
45836;SDS011;31548;51.420;-0.040;2022-09-09T01:36:17;5.75;;;0.80;;
45836;SDS011;31548;51.420;-0.040;2022-09-09T01:38:51;8.93;;;0.88;;
45836;SDS011;31548;51.420;-0.040;2022-09-09T01:41:19;4.88;;;0.60;;
45836;SDS011;31548;51.420;-0.040;2022-09-09T01:43:53;7.83;;;0.80;;
45836;SDS011;31548;51.420;-0.040;2022-09-09T01:46:22;6.35;;;1.00;;
45836;SDS011;31548;51.420;-0.040;2022-09-09T01:48:51;5.47;;;0.95;;
45836;SDS011;31548;51.420;-0.040;2022-09-09T01:51:20;6.72;;;0.82;;
45836;SDS011;31548;51.420;-0.040;2022-09-09T01:53:48;9.05;;;1.20;;
45836;SDS011;31548;51.420;-0.040;2022-09-09T01:56:22;7.30;;;0.80;;
45836;SDS011;31548;51.420;-0.040;2022-09-09T02:01:45;9.90;;;1.15;;
45836;SDS011;31548;51.420;-0.040;2022-09-09T02:04:38;4.53;;;0.60;;
45836;SDS011;31548;51.420;-0.040;2022-09-09T02:07:23;3.75;;;0.60;;
45836;SDS011;31548;51.420;-0.040;2022-09-09T02:10:19;3.33;;;0.40;;
45836;SDS011;31548;51.420;-0.040;2022-09-09T02:13:02;3.83;;;0.40;;
45836;SDS011;31548;51.420;-0.040;2022-09-09T02:18:14;3.42;;;0.50;;
45836;SDS011;31548;51.420;-0.040;2022-09-09T02:20:44;8.65;;;0.63;;
45836;SDS011;31548;51.420;-0.040;2022-09-09T02:23:12;4.90;;;0.60;;
45836;SDS011;31548;51.420;-0.040;2022-09-09T02:25:43;2.30;;;0.50;;
45836;SDS011;31548;51.420;-0.040;2022-09-09T02:28:19;3.80;;;0.55;;
45836;SDS011;31548;51.420;-0.040;2022-09-09T02:30:49;4.63;;;0.70;;
45836;SDS011;31548;51.420;-0.040;2022-09-09T02:33:28;5.85;;;0.93;;
45836;SDS011;31548;51.420;-0.040;2022-09-09T02:36:02;2.00;;;0.60;;
45836;SDS011;31548;51.420;-0.040;2022-09-09T02:38:35;4.22;;;0.60;;
45836;SDS011;31548;51.420;-0.040;2022-09-09T02:41:10;4.28;;;0.57;;
45836;SDS011;31548;51.420;-0.040;2022-09-09T02:43:38;7.38;;;0.73;;
45836;SDS011;31548;51.420;-0.040;2022-09-09T02:54:37;12.48;;;1.08;;
45836;SDS011;31548;51.420;-0.040;2022-09-09T02:57:23;11.02;;;0.70;;
45836;SDS011;31548;51.420;-0.040;2022-09-09T02:59:57;6.05;;;0.68;;
45836;SDS011;31548;51.420;-0.040;2022-09-09T03:02:25;4.05;;;0.95;;
45836;SDS011;31548;51.420;-0.040;2022-09-09T03:04:59;3.45;;;0.50;;
45836;SDS011;31548;51.420;-0.040;2022-09-09T03:07:26;7.78;;;0.85;;
45836;SDS011;31548;51.420;-0.040;2022-09-09T03:09:54;8.18;;;1.00;;
45836;SDS011;31548;51.420;-0.040;2022-09-09T03:12:25;8.10;;;0.75;;
45836;SDS011;31548;51.420;-0.040;2022-09-09T03:14:52;6.65;;;0.50;;
45836;SDS011;31548;51.420;-0.040;2022-09-09T03:17:19;12.85;;;1.13;;
45836;SDS011;31548;51.420;-0.040;2022-09-09T03:19:51;8.05;;;0.73;;
45836;SDS011;31548;51.420;-0.040;2022-09-09T03:22:21;12.80;;;0.68;;
45836;SDS011;31548;51.420;-0.040;2022-09-09T03:24:48;8.20;;;1.25;;
45836;SDS011;31548;51.420;-0.040;2022-09-09T03:27:16;10.27;;;1.23;;
45836;SDS011;31548;51.420;-0.040;2022-09-09T03:29:44;8.80;;;1.33;;
45836;SDS011;31548;51.420;-0.040;2022-09-09T03:32:17;8.10;;;0.90;;
45836;SDS011;31548;51.420;-0.040;2022-09-09T03:34:45;5.28;;;0.70;;
45836;SDS011;31548;51.420;-0.040;2022-09-09T03:37:14;8.32;;;1.00;;
45836;SDS011;31548;51.420;-0.040;2022-09-09T03:39:41;4.65;;;0.70;;
45836;SDS011;31548;51.420;-0.040;2022-09-09T03:42:14;8.95;;;1.38;;
45836;SDS011;31548;51.420;-0.040;2022-09-09T03:44:48;6.88;;;1.00;;
45836;SDS011;31548;51.420;-0.040;2022-09-09T03:47:20;5.15;;;0.82;;
45836;SDS011;31548;51.420;-0.040;2022-09-09T03:49:50;12.65;;;1.25;;
45836;SDS011;31548;51.420;-0.040;2022-09-09T03:52:18;7.55;;;1.25;;
45836;SDS011;31548;51.420;-0.040;2022-09-09T03:54:51;5.35;;;0.90;;
45836;SDS011;31548;51.420;-0.040;2022-09-09T03:57:19;8.75;;;1.23;;
45836;SDS011;31548;51.420;-0.040;2022-09-09T03:59:47;8.73;;;1.02;;
45836;SDS011;31548;51.420;-0.040;2022-09-09T04:02:15;4.38;;;0.80;;
45836;SDS011;31548;51.420;-0.040;2022-09-09T04:04:42;5.35;;;0.60;;
45836;SDS011;31548;51.420;-0.040;2022-09-09T04:07:09;8.65;;;1.13;;
45836;SDS011;31548;51.420;-0.040;2022-09-09T04:09:39;7.03;;;1.27;;
45836;SDS011;31548;51.420;-0.040;2022-09-09T04:12:07;4.88;;;0.70;;
45836;SDS011;31548;51.420;-0.040;2022-09-09T04:14:34;6.43;;;0.98;;
45836;SDS011;31548;51.420;-0.040;2022-09-09T04:17:03;3.40;;;0.73;;
45836;SDS011;31548;51.420;-0.040;2022-09-09T04:19:33;7.22;;;0.90;;
45836;SDS011;31548;51.420;-0.040;2022-09-09T04:22:01;5.60;;;1.60;;
45836;SDS011;31548;51.420;-0.040;2022-09-09T04:24:28;5.75;;;0.75;;
45836;SDS011;31548;51.420;-0.040;2022-09-09T04:26:57;3.28;;;0.73;;
45836;SDS011;31548;51.420;-0.040;2022-09-09T04:29:24;4.10;;;0.98;;
45836;SDS011;31548;51.420;-0.040;2022-09-09T04:31:51;5.00;;;1.13;;
45836;SDS011;31548;51.420;-0.040;2022-09-09T04:34:20;7.43;;;1.52;;
45836;SDS011;31548;51.420;-0.040;2022-09-09T04:36:48;6.22;;;1.20;;
45836;SDS011;31548;51.420;-0.040;2022-09-09T04:39:15;7.80;;;1.17;;
45836;SDS011;31548;51.420;-0.040;2022-09-09T04:41:43;7.85;;;1.67;;
45836;SDS011;31548;51.420;-0.040;2022-09-09T04:44:10;5.63;;;1.05;;
45836;SDS011;31548;51.420;-0.040;2022-09-09T04:46:38;2.88;;;0.70;;
45836;SDS011;31548;51.420;-0.040;2022-09-09T04:49:05;5.47;;;0.85;;
45836;SDS011;31548;51.420;-0.040;2022-09-09T04:51:37;6.50;;;0.90;;
45836;SDS011;31548;51.420;-0.040;2022-09-09T04:54:04;3.53;;;0.80;;
45836;SDS011;31548;51.420;-0.040;2022-09-09T04:56:32;7.35;;;1.42;;
45836;SDS011;31548;51.420;-0.040;2022-09-09T04:59:00;4.05;;;0.60;;
45836;SDS011;31548;51.420;-0.040;2022-09-09T05:01:41;3.72;;;0.65;;
45836;SDS011;31548;51.420;-0.040;2022-09-09T05:04:10;6.45;;;0.85;;
45836;SDS011;31548;51.420;-0.040;2022-09-09T05:06:37;3.03;;;0.55;;
45836;SDS011;31548;51.420;-0.040;2022-09-09T05:09:05;2.47;;;0.85;;
45836;SDS011;31548;51.420;-0.040;2022-09-09T05:11:32;8.25;;;1.40;;
45836;SDS011;31548;51.420;-0.040;2022-09-09T05:14:10;4.55;;;1.00;;
45836;SDS011;31548;51.420;-0.040;2022-09-09T05:16:39;2.65;;;0.82;;
45836;SDS011;31548;51.420;-0.040;2022-09-09T05:19:07;6.13;;;1.10;;
45836;SDS011;31548;51.420;-0.040;2022-09-09T05:21:42;3.97;;;0.95;;
45836;SDS011;31548;51.420;-0.040;2022-09-09T05:24:11;6.28;;;0.90;;
45836;SDS011;31548;51.420;-0.040;2022-09-09T05:26:39;8.88;;;1.40;;
45836;SDS011;31548;51.420;-0.040;2022-09-09T05:29:06;9.80;;;1.25;;
45836;SDS011;31548;51.420;-0.040;2022-09-09T05:31:35;11.60;;;1.67;;
45836;SDS011;31548;51.420;-0.040;2022-09-09T05:34:08;17.70;;;3.75;;
45836;SDS011;31548;51.420;-0.040;2022-09-09T05:36:35;7.25;;;1.40;;
45836;SDS011;31548;51.420;-0.040;2022-09-09T05:39:02;13.98;;;2.10;;
45836;SDS011;31548;51.420;-0.040;2022-09-09T05:41:31;10.35;;;1.50;;
45836;SDS011;31548;51.420;-0.040;2022-09-09T05:44:01;11.60;;;1.80;;
45836;SDS011;31548;51.420;-0.040;2022-09-09T05:46:31;7.40;;;3.25;;
45836;SDS011;31548;51.420;-0.040;2022-09-09T05:48:59;11.57;;;2.00;;
45836;SDS011;31548;51.420;-0.040;2022-09-09T05:51:31;10.93;;;2.13;;
45836;SDS011;31548;51.420;-0.040;2022-09-09T05:54:03;9.98;;;2.47;;
45836;SDS011;31548;51.420;-0.040;2022-09-09T05:56:33;11.68;;;2.20;;
45836;SDS011;31548;51.420;-0.040;2022-09-09T05:59:01;8.20;;;2.00;;
45836;SDS011;31548;51.420;-0.040;2022-09-09T06:01:29;9.10;;;1.83;;
45836;SDS011;31548;51.420;-0.040;2022-09-09T06:04:01;6.38;;;1.95;;
45836;SDS011;31548;51.420;-0.040;2022-09-09T06:06:30;6.38;;;1.52;;
45836;SDS011;31548;51.420;-0.040;2022-09-09T06:09:06;9.55;;;2.58;;
45836;SDS011;31548;51.420;-0.040;2022-09-09T06:11:39;15.68;;;3.88;;
45836;SDS011;31548;51.420;-0.040;2022-09-09T06:14:07;10.07;;;2.05;;
45836;SDS011;31548;51.420;-0.040;2022-09-09T06:16:36;12.02;;;2.10;;
45836;SDS011;31548;51.420;-0.040;2022-09-09T06:19:15;7.65;;;1.60;;
45836;SDS011;31548;51.420;-0.040;2022-09-09T06:21:43;7.72;;;1.90;;
45836;SDS011;31548;51.420;-0.040;2022-09-09T06:24:11;10.82;;;2.83;;
45836;SDS011;31548;51.420;-0.040;2022-09-09T06:26:40;9.10;;;1.92;;
45836;SDS011;31548;51.420;-0.040;2022-09-09T06:29:11;13.80;;;2.70;;
45836;SDS011;31548;51.420;-0.040;2022-09-09T06:31:41;5.20;;;1.98;;
45836;SDS011;31548;51.420;-0.040;2022-09-09T06:34:13;15.52;;;3.30;;
45836;SDS011;31548;51.420;-0.040;2022-09-09T06:36:45;7.13;;;1.90;;
45836;SDS011;31548;51.420;-0.040;2022-09-09T06:39:12;5.30;;;1.15;;
45836;SDS011;31548;51.420;-0.040;2022-09-09T06:41:42;9.32;;;1.65;;
45836;SDS011;31548;51.420;-0.040;2022-09-09T06:44:39;9.38;;;2.63;;
45836;SDS011;31548;51.420;-0.040;2022-09-09T06:47:11;8.20;;;2.17;;
45836;SDS011;31548;51.420;-0.040;2022-09-09T06:49:39;10.50;;;3.20;;
45836;SDS011;31548;51.420;-0.040;2022-09-09T06:52:11;7.55;;;2.20;;
45836;SDS011;31548;51.420;-0.040;2022-09-09T06:54:38;6.82;;;1.65;;
45836;SDS011;31548;51.420;-0.040;2022-09-09T06:57:05;8.68;;;1.20;;
45836;SDS011;31548;51.420;-0.040;2022-09-09T06:59:54;6.03;;;2.05;;
45836;SDS011;31548;51.420;-0.040;2022-09-09T07:02:22;9.20;;;1.95;;
45836;SDS011;31548;51.420;-0.040;2022-09-09T07:04:50;6.45;;;1.20;;
45836;SDS011;31548;51.420;-0.040;2022-09-09T07:07:18;11.88;;;2.55;;
45836;SDS011;31548;51.420;-0.040;2022-09-09T07:09:45;7.32;;;1.65;;
45836;SDS011;31548;51.420;-0.040;2022-09-09T07:12:13;6.38;;;1.52;;
45836;SDS011;31548;51.420;-0.040;2022-09-09T07:17:15;5.68;;;1.02;;
45836;SDS011;31548;51.420;-0.040;2022-09-09T07:19:42;16.75;;;3.40;;
45836;SDS011;31548;51.420;-0.040;2022-09-09T07:22:09;11.05;;;2.15;;
45836;SDS011;31548;51.420;-0.040;2022-09-09T07:24:38;10.75;;;2.72;;
45836;SDS011;31548;51.420;-0.040;2022-09-09T07:27:06;5.82;;;1.52;;
45836;SDS011;31548;51.420;-0.040;2022-09-09T07:29:34;7.55;;;2.08;;
45836;SDS011;31548;51.420;-0.040;2022-09-09T07:32:02;7.80;;;1.67;;
45836;SDS011;31548;51.420;-0.040;2022-09-09T07:34:34;6.40;;;1.50;;
45836;SDS011;31548;51.420;-0.040;2022-09-09T07:37:02;9.60;;;1.70;;
45836;SDS011;31548;51.420;-0.040;2022-09-09T07:39:30;11.63;;;2.45;;
45836;SDS011;31548;51.420;-0.040;2022-09-09T07:41:58;6.43;;;1.77;;
45836;SDS011;31548;51.420;-0.040;2022-09-09T07:44:25;8.35;;;1.65;;
45836;SDS011;31548;51.420;-0.040;2022-09-09T07:47:07;10.65;;;1.75;;
45836;SDS011;31548;51.420;-0.040;2022-09-09T07:49:38;6.15;;;1.55;;
45836;SDS011;31548;51.420;-0.040;2022-09-09T07:52:07;6.68;;;1.67;;
45836;SDS011;31548;51.420;-0.040;2022-09-09T07:54:36;4.43;;;1.65;;
45836;SDS011;31548;51.420;-0.040;2022-09-09T07:57:05;5.57;;;1.85;;
45836;SDS011;31548;51.420;-0.040;2022-09-09T07:59:35;7.22;;;2.35;;
45836;SDS011;31548;51.420;-0.040;2022-09-09T08:02:02;11.35;;;3.08;;
45836;SDS011;31548;51.420;-0.040;2022-09-09T08:04:32;8.52;;;2.28;;
45836;SDS011;31548;51.420;-0.040;2022-09-09T08:07:01;4.30;;;1.52;;
45836;SDS011;31548;51.420;-0.040;2022-09-09T08:09:35;6.10;;;2.10;;
45836;SDS011;31548;51.420;-0.040;2022-09-09T08:12:11;6.20;;;1.25;;
45836;SDS011;31548;51.420;-0.040;2022-09-09T08:14:39;5.18;;;1.38;;
45836;SDS011;31548;51.420;-0.040;2022-09-09T08:17:07;7.63;;;1.80;;
45836;SDS011;31548;51.420;-0.040;2022-09-09T08:19:34;6.65;;;1.65;;
45836;SDS011;31548;51.420;-0.040;2022-09-09T08:22:06;6.40;;;1.73;;
45836;SDS011;31548;51.420;-0.040;2022-09-09T08:24:37;6.93;;;1.98;;
45836;SDS011;31548;51.420;-0.040;2022-09-09T08:27:04;5.07;;;1.00;;
45836;SDS011;31548;51.420;-0.040;2022-09-09T08:29:33;4.40;;;2.25;;
45836;SDS011;31548;51.420;-0.040;2022-09-09T08:32:01;7.72;;;1.52;;
45836;SDS011;31548;51.420;-0.040;2022-09-09T08:34:29;7.07;;;3.20;;
45836;SDS011;31548;51.420;-0.040;2022-09-09T08:37:00;6.57;;;2.75;;
45836;SDS011;31548;51.420;-0.040;2022-09-09T08:39:33;4.70;;;1.83;;
45836;SDS011;31548;51.420;-0.040;2022-09-09T08:47:34;9.02;;;3.25;;
45836;SDS011;31548;51.420;-0.040;2022-09-09T08:55:50;6.50;;;2.50;;
45836;SDS011;31548;51.420;-0.040;2022-09-09T08:58:57;5.95;;;2.92;;
45836;SDS011;31548;51.420;-0.040;2022-09-09T09:07:21;6.18;;;3.55;;
45836;SDS011;31548;51.420;-0.040;2022-09-09T09:13:26;3.85;;;2.25;;
45836;SDS011;31548;51.420;-0.040;2022-09-09T09:16:17;4.65;;;2.08;;
45836;SDS011;31548;51.420;-0.040;2022-09-09T09:19:13;8.85;;;3.22;;
45836;SDS011;31548;51.420;-0.040;2022-09-09T09:21:44;5.53;;;4.28;;
45836;SDS011;31548;51.420;-0.040;2022-09-09T09:30:13;9.50;;;4.40;;
45836;SDS011;31548;51.420;-0.040;2022-09-09T09:32:57;8.90;;;3.40;;
45836;SDS011;31548;51.420;-0.040;2022-09-09T09:35:29;7.57;;;3.83;;
45836;SDS011;31548;51.420;-0.040;2022-09-09T09:37:57;9.07;;;3.63;;
45836;SDS011;31548;51.420;-0.040;2022-09-09T09:40:49;6.90;;;3.03;;
45836;SDS011;31548;51.420;-0.040;2022-09-09T09:43:20;10.70;;;3.88;;
45836;SDS011;31548;51.420;-0.040;2022-09-09T09:45:51;9.77;;;5.10;;
45836;SDS011;31548;51.420;-0.040;2022-09-09T09:48:39;14.50;;;5.90;;
45836;SDS011;31548;51.420;-0.040;2022-09-09T09:51:08;8.07;;;4.05;;
45836;SDS011;31548;51.420;-0.040;2022-09-09T09:53:42;7.35;;;4.40;;
45836;SDS011;31548;51.420;-0.040;2022-09-09T09:56:12;12.20;;;5.47;;
45836;SDS011;31548;51.420;-0.040;2022-09-09T10:01:24;6.63;;;3.53;;
45836;SDS011;31548;51.420;-0.040;2022-09-09T10:03:55;9.73;;;5.07;;
45836;SDS011;31548;51.420;-0.040;2022-09-09T10:06:32;6.38;;;3.40;;
45836;SDS011;31548;51.420;-0.040;2022-09-09T10:09:01;10.60;;;5.88;;
45836;SDS011;31548;51.420;-0.040;2022-09-09T10:11:44;8.20;;;4.03;;
45836;SDS011;31548;51.420;-0.040;2022-09-09T10:14:20;18.42;;;6.55;;
45836;SDS011;31548;51.420;-0.040;2022-09-09T10:19:49;16.10;;;7.50;;
45836;SDS011;31548;51.420;-0.040;2022-09-09T10:22:44;16.08;;;6.85;;
45836;SDS011;31548;51.420;-0.040;2022-09-09T10:36:33;14.15;;;4.80;;
45836;SDS011;31548;51.420;-0.040;2022-09-09T10:39:38;14.27;;;6.63;;
45836;SDS011;31548;51.420;-0.040;2022-09-09T10:42:12;10.98;;;5.82;;
45836;SDS011;31548;51.420;-0.040;2022-09-09T10:50:13;14.30;;;6.10;;
45836;SDS011;31548;51.420;-0.040;2022-09-09T10:55:59;9.35;;;3.85;;
45836;SDS011;31548;51.420;-0.040;2022-09-09T10:58:38;12.68;;;4.60;;
45836;SDS011;31548;51.420;-0.040;2022-09-09T11:01:21;16.85;;;5.47;;
45836;SDS011;31548;51.420;-0.040;2022-09-09T11:03:54;16.70;;;5.50;;
45836;SDS011;31548;51.420;-0.040;2022-09-09T11:06:28;8.73;;;3.63;;
45836;SDS011;31548;51.420;-0.040;2022-09-09T11:09:02;9.48;;;3.35;;
45836;SDS011;31548;51.420;-0.040;2022-09-09T11:11:36;7.88;;;3.63;;
45836;SDS011;31548;51.420;-0.040;2022-09-09T11:14:11;5.03;;;2.60;;
45836;SDS011;31548;51.420;-0.040;2022-09-09T11:17:01;5.85;;;1.90;;
45836;SDS011;31548;51.420;-0.040;2022-09-09T11:19:55;2.67;;;1.60;;
45836;SDS011;31548;51.420;-0.040;2022-09-09T11:30:57;3.80;;;1.30;;
45836;SDS011;31548;51.420;-0.040;2022-09-09T11:33:34;2.05;;;1.02;;
45836;SDS011;31548;51.420;-0.040;2022-09-09T11:36:24;5.30;;;1.10;;
45836;SDS011;31548;51.420;-0.040;2022-09-09T11:41:33;6.80;;;2.58;;
45836;SDS011;31548;51.420;-0.040;2022-09-09T11:44:10;4.70;;;1.50;;
45836;SDS011;31548;51.420;-0.040;2022-09-09T11:46:43;4.97;;;2.08;;
45836;SDS011;31548;51.420;-0.040;2022-09-09T11:49:26;3.30;;;1.80;;
45836;SDS011;31548;51.420;-0.040;2022-09-09T11:51:57;6.03;;;2.25;;
45836;SDS011;31548;51.420;-0.040;2022-09-09T11:54:31;5.15;;;1.98;;
45836;SDS011;31548;51.420;-0.040;2022-09-09T11:57:17;2.83;;;1.10;;
45836;SDS011;31548;51.420;-0.040;2022-09-09T11:59:57;4.20;;;1.35;;
45836;SDS011;31548;51.420;-0.040;2022-09-09T12:02:26;4.47;;;1.20;;
45836;SDS011;31548;51.420;-0.040;2022-09-09T12:10:19;4.57;;;1.70;;
45836;SDS011;31548;51.420;-0.040;2022-09-09T12:12:47;3.13;;;1.02;;
45836;SDS011;31548;51.420;-0.040;2022-09-09T12:17:51;5.00;;;1.45;;
45836;SDS011;31548;51.420;-0.040;2022-09-09T12:20:33;3.45;;;1.23;;
45836;SDS011;31548;51.420;-0.040;2022-09-09T12:23:10;4.53;;;1.63;;
45836;SDS011;31548;51.420;-0.040;2022-09-09T12:34:02;3.53;;;1.05;;
45836;SDS011;31548;51.420;-0.040;2022-09-09T12:36:38;2.08;;;1.02;;
45836;SDS011;31548;51.420;-0.040;2022-09-09T12:39:24;1.88;;;1.30;;
45836;SDS011;31548;51.420;-0.040;2022-09-09T12:41:53;3.95;;;1.25;;
45836;SDS011;31548;51.420;-0.040;2022-09-09T12:44:24;6.68;;;1.83;;
45836;SDS011;31548;51.420;-0.040;2022-09-09T12:46:54;3.15;;;1.15;;
45836;SDS011;31548;51.420;-0.040;2022-09-09T12:49:37;6.18;;;1.42;;
45836;SDS011;31548;51.420;-0.040;2022-09-09T12:52:08;7.97;;;1.30;;
45836;SDS011;31548;51.420;-0.040;2022-09-09T12:54:44;4.10;;;0.90;;
45836;SDS011;31548;51.420;-0.040;2022-09-09T12:57:18;4.47;;;1.38;;
45836;SDS011;31548;51.420;-0.040;2022-09-09T12:59:45;1.73;;;0.80;;
45836;SDS011;31548;51.420;-0.040;2022-09-09T13:02:22;6.78;;;1.80;;
45836;SDS011;31548;51.420;-0.040;2022-09-09T13:04:52;2.67;;;1.05;;
45836;SDS011;31548;51.420;-0.040;2022-09-09T13:07:20;1.95;;;1.05;;
45836;SDS011;31548;51.420;-0.040;2022-09-09T13:09:48;2.33;;;1.40;;
45836;SDS011;31548;51.420;-0.040;2022-09-09T13:12:17;2.45;;;1.20;;
45836;SDS011;31548;51.420;-0.040;2022-09-09T13:14:47;6.28;;;1.50;;
45836;SDS011;31548;51.420;-0.040;2022-09-09T13:17:19;2.05;;;1.10;;
45836;SDS011;31548;51.420;-0.040;2022-09-09T13:19:48;5.03;;;1.45;;
45836;SDS011;31548;51.420;-0.040;2022-09-09T13:22:26;3.10;;;1.17;;
45836;SDS011;31548;51.420;-0.040;2022-09-09T13:27:38;5.03;;;1.10;;
45836;SDS011;31548;51.420;-0.040;2022-09-09T13:35:54;2.78;;;0.98;;
45836;SDS011;31548;51.420;-0.040;2022-09-09T13:39:16;3.05;;;1.05;;
45836;SDS011;31548;51.420;-0.040;2022-09-09T13:41:21;3.65;;;0.90;;
45836;SDS011;31548;51.420;-0.040;2022-09-09T13:43:51;3.97;;;0.90;;
45836;SDS011;31548;51.420;-0.040;2022-09-09T13:48:56;3.00;;;1.00;;
45836;SDS011;31548;51.420;-0.040;2022-09-09T13:51:29;4.20;;;1.30;;
45836;SDS011;31548;51.420;-0.040;2022-09-09T13:54:08;4.57;;;1.10;;
45836;SDS011;31548;51.420;-0.040;2022-09-09T13:56:37;6.30;;;2.20;;
45836;SDS011;31548;51.420;-0.040;2022-09-09T13:59:08;3.33;;;1.00;;
45836;SDS011;31548;51.420;-0.040;2022-09-09T14:01:38;3.88;;;1.33;;
45836;SDS011;31548;51.420;-0.040;2022-09-09T14:04:05;2.47;;;1.05;;
45836;SDS011;31548;51.420;-0.040;2022-09-09T14:06:33;5.80;;;1.23;;
45836;SDS011;31548;51.420;-0.040;2022-09-09T14:09:05;4.95;;;1.20;;
45836;SDS011;31548;51.420;-0.040;2022-09-09T14:11:33;2.00;;;1.02;;
45836;SDS011;31548;51.420;-0.040;2022-09-09T14:14:00;5.15;;;1.48;;
45836;SDS011;31548;51.420;-0.040;2022-09-09T14:16:28;3.28;;;1.17;;
45836;SDS011;31548;51.420;-0.040;2022-09-09T14:18:55;2.10;;;0.82;;
45836;SDS011;31548;51.420;-0.040;2022-09-09T14:21:23;7.57;;;1.73;;
45836;SDS011;31548;51.420;-0.040;2022-09-09T14:23:51;1.63;;;0.73;;
45836;SDS011;31548;51.420;-0.040;2022-09-09T14:26:21;5.28;;;0.80;;
45836;SDS011;31548;51.420;-0.040;2022-09-09T14:28:50;4.60;;;1.17;;
45836;SDS011;31548;51.420;-0.040;2022-09-09T14:31:22;1.52;;;1.00;;
45836;SDS011;31548;51.420;-0.040;2022-09-09T14:33:50;1.83;;;0.80;;
45836;SDS011;31548;51.420;-0.040;2022-09-09T14:36:19;4.95;;;0.70;;
45836;SDS011;31548;51.420;-0.040;2022-09-09T14:38:46;3.03;;;0.95;;
45836;SDS011;31548;51.420;-0.040;2022-09-09T14:41:15;2.55;;;0.90;;
45836;SDS011;31548;51.420;-0.040;2022-09-09T14:43:44;4.20;;;1.13;;
45836;SDS011;31548;51.420;-0.040;2022-09-09T14:46:13;4.90;;;1.60;;
45836;SDS011;31548;51.420;-0.040;2022-09-09T14:48:42;1.90;;;0.80;;
45836;SDS011;31548;51.420;-0.040;2022-09-09T14:51:19;3.17;;;0.80;;
45836;SDS011;31548;51.420;-0.040;2022-09-09T14:53:52;2.30;;;0.93;;
45836;SDS011;31548;51.420;-0.040;2022-09-09T14:56:21;3.00;;;1.08;;
45836;SDS011;31548;51.420;-0.040;2022-09-09T14:58:49;3.75;;;0.90;;
45836;SDS011;31548;51.420;-0.040;2022-09-09T15:01:18;4.63;;;0.70;;
45836;SDS011;31548;51.420;-0.040;2022-09-09T15:03:52;5.65;;;1.02;;
45836;SDS011;31548;51.420;-0.040;2022-09-09T15:06:30;1.73;;;0.60;;
45836;SDS011;31548;51.420;-0.040;2022-09-09T15:09:00;2.50;;;0.60;;
45836;SDS011;31548;51.420;-0.040;2022-09-09T15:11:28;1.25;;;0.52;;
45836;SDS011;31548;51.420;-0.040;2022-09-09T15:13:57;1.88;;;0.70;;
45836;SDS011;31548;51.420;-0.040;2022-09-09T15:16:26;5.97;;;0.70;;
45836;SDS011;31548;51.420;-0.040;2022-09-09T15:18:55;5.40;;;0.63;;
45836;SDS011;31548;51.420;-0.040;2022-09-09T15:21:25;7.53;;;0.52;;
45836;SDS011;31548;51.420;-0.040;2022-09-09T15:23:54;3.22;;;0.70;;
45836;SDS011;31548;51.420;-0.040;2022-09-09T15:26:22;1.67;;;0.50;;
45836;SDS011;31548;51.420;-0.040;2022-09-09T15:28:50;0.93;;;0.40;;
45836;SDS011;31548;51.420;-0.040;2022-09-09T15:31:21;2.22;;;0.43;;
45836;SDS011;31548;51.420;-0.040;2022-09-09T15:33:50;5.22;;;0.47;;
45836;SDS011;31548;51.420;-0.040;2022-09-09T15:36:23;0.60;;;0.40;;
45836;SDS011;31548;51.420;-0.040;2022-09-09T15:38:52;4.68;;;0.30;;
45836;SDS011;31548;51.420;-0.040;2022-09-09T15:41:20;5.45;;;0.40;;
45836;SDS011;31548;51.420;-0.040;2022-09-09T15:43:49;0.68;;;0.40;;
45836;SDS011;31548;51.420;-0.040;2022-09-09T15:48:56;3.22;;;0.60;;
45836;SDS011;31548;51.420;-0.040;2022-09-09T15:51:25;0.82;;;0.30;;
45836;SDS011;31548;51.420;-0.040;2022-09-09T15:54:11;1.50;;;0.60;;
45836;SDS011;31548;51.420;-0.040;2022-09-09T15:56:47;1.48;;;0.52;;
45836;SDS011;31548;51.420;-0.040;2022-09-09T15:59:23;1.55;;;0.50;;
45836;SDS011;31548;51.420;-0.040;2022-09-09T16:01:51;5.35;;;0.50;;
45836;SDS011;31548;51.420;-0.040;2022-09-09T16:04:19;3.33;;;1.10;;
45836;SDS011;31548;51.420;-0.040;2022-09-09T16:06:50;4.32;;;1.15;;
45836;SDS011;31548;51.420;-0.040;2022-09-09T16:09:24;2.92;;;0.85;;
45836;SDS011;31548;51.420;-0.040;2022-09-09T16:11:52;2.05;;;0.60;;
45836;SDS011;31548;51.420;-0.040;2022-09-09T16:14:22;3.92;;;0.80;;
45836;SDS011;31548;51.420;-0.040;2022-09-09T16:16:51;1.77;;;0.70;;
45836;SDS011;31548;51.420;-0.040;2022-09-09T16:19:19;1.75;;;0.50;;
45836;SDS011;31548;51.420;-0.040;2022-09-09T16:21:47;2.95;;;0.65;;
45836;SDS011;31548;51.420;-0.040;2022-09-09T16:24:16;2.50;;;0.43;;
45836;SDS011;31548;51.420;-0.040;2022-09-09T16:26:45;1.90;;;0.70;;
45836;SDS011;31548;51.420;-0.040;2022-09-09T16:29:14;2.13;;;0.60;;
45836;SDS011;31548;51.420;-0.040;2022-09-09T16:31:47;2.80;;;0.70;;
45836;SDS011;31548;51.420;-0.040;2022-09-09T16:34:15;3.65;;;0.60;;
45836;SDS011;31548;51.420;-0.040;2022-09-09T16:36:44;3.97;;;0.50;;
45836;SDS011;31548;51.420;-0.040;2022-09-09T16:39:17;1.52;;;0.50;;
45836;SDS011;31548;51.420;-0.040;2022-09-09T16:41:46;1.00;;;0.50;;
45836;SDS011;31548;51.420;-0.040;2022-09-09T16:44:15;3.38;;;0.85;;
45836;SDS011;31548;51.420;-0.040;2022-09-09T16:46:45;2.75;;;0.80;;
45836;SDS011;31548;51.420;-0.040;2022-09-09T16:49:15;3.67;;;0.75;;
45836;SDS011;31548;51.420;-0.040;2022-09-09T16:51:44;4.82;;;0.93;;
45836;SDS011;31548;51.420;-0.040;2022-09-09T16:54:14;1.15;;;0.70;;
45836;SDS011;31548;51.420;-0.040;2022-09-09T16:56:44;2.42;;;1.00;;
45836;SDS011;31548;51.420;-0.040;2022-09-09T16:59:14;5.45;;;0.82;;
45836;SDS011;31548;51.420;-0.040;2022-09-09T17:01:44;2.03;;;0.80;;
45836;SDS011;31548;51.420;-0.040;2022-09-09T17:04:14;1.50;;;0.70;;
45836;SDS011;31548;51.420;-0.040;2022-09-09T17:06:48;3.85;;;0.85;;
45836;SDS011;31548;51.420;-0.040;2022-09-09T17:09:17;3.35;;;0.80;;
45836;SDS011;31548;51.420;-0.040;2022-09-09T17:11:45;3.35;;;0.70;;
45836;SDS011;31548;51.420;-0.040;2022-09-09T17:14:14;2.25;;;0.98;;
45836;SDS011;31548;51.420;-0.040;2022-09-09T17:16:43;2.65;;;0.90;;
45836;SDS011;31548;51.420;-0.040;2022-09-09T17:19:11;2.50;;;0.82;;
45836;SDS011;31548;51.420;-0.040;2022-09-09T17:21:39;3.33;;;0.90;;
45836;SDS011;31548;51.420;-0.040;2022-09-09T17:24:27;3.67;;;0.90;;
45836;SDS011;31548;51.420;-0.040;2022-09-09T17:26:56;2.72;;;0.98;;
45836;SDS011;31548;51.420;-0.040;2022-09-09T17:29:24;2.67;;;1.13;;
45836;SDS011;31548;51.420;-0.040;2022-09-09T17:31:51;5.20;;;1.27;;